.
WxDataArchive / Data Records for 2006-03-16
2006-03-15 March 2006 2006-03-17

Data Records for Thursday, 16 March 2006

Time	Temp	Chill	HIndex	Humid	Dewpt	 Wind 	HiWind	WindDir	Rain 	Barom 
-----	----	-----	------	-----	-----	------	------	-------	-----	----- 
00:00	34.1	34.1	34.1	53	18.8	0	2	270	0.00	30.184 
00:05	34.1	34.1	34.1	52	18.3	0	1	270	0.00	30.184 
00:10	34.1	34.1	34.1	53	18.8	0	1	270	0.00	30.184 
00:15	34.0	34.0	34.0	53	18.7	0	2	270	0.00	30.190 
00:20	34.0	34.0	34.0	52	18.2	0	1	270	0.00	30.190 
00:25	33.8	33.8	33.8	53	18.5	0	0	---	0.00	30.190 
00:30	33.8	33.8	33.8	53	18.5	0	1	270	0.00	30.191 
00:35	33.7	33.7	33.7	53	18.4	0	1	270	0.00	30.191 
00:40	33.7	33.7	33.7	53	18.4	0	1	270	0.00	30.191 
00:45	33.5	33.5	33.5	52	17.8	0	2	270	0.00	30.193 
00:50	33.5	33.5	33.5	53	18.2	0	2	270	0.00	30.193 
00:55	33.5	33.5	33.5	51	17.3	0	2	270	0.00	30.193 
01:00	33.5	33.5	33.5	51	17.3	0	1	270	0.00	30.203 
01:05	33.5	33.5	33.5	51	17.3	0	1	270	0.00	30.203 
01:10	33.5	33.5	33.5	52	17.8	0	2	292	0.00	30.203 
01:15	33.4	33.4	33.4	51	17.2	0	1	292	0.00	30.196 
01:20	33.4	33.4	33.4	50	16.8	0	2	292	0.00	30.196 
01:25	33.4	33.4	33.4	51	17.2	0	1	292	0.00	30.196 
01:30	33.4	33.4	33.4	51	17.2	0	0	---	0.00	30.198 
01:35	33.2	33.2	33.2	52	17.5	0	1	292	0.00	30.198 
01:40	33.2	33.2	33.2	52	17.5	0	1	292	0.00	30.198 
01:45	33.1	33.1	33.1	52	17.4	0	1	292	0.00	30.205 
01:50	33.1	33.1	33.1	52	17.4	0	1	292	0.00	30.205 
01:55	33.1	33.1	33.1	53	17.9	0	1	292	0.00	30.205 
02:00	33.1	33.1	33.1	52	17.4	0	1	292	0.00	30.196 
02:05	33.1	33.1	33.1	53	17.9	0	0	---	0.00	30.196 
02:10	33.1	33.1	33.1	52	17.4	0	1	292	0.00	30.196 
02:15	32.9	32.9	32.9	52	17.2	0	1	292	0.00	30.181 
02:20	32.9	32.9	32.9	52	17.2	0	2	292	0.00	30.181 
02:25	32.9	32.9	32.9	53	17.7	0	1	292	0.00	30.181 
02:30	32.8	32.8	32.8	53	17.6	0	2	292	0.00	30.179 
02:35	32.8	32.8	32.8	53	17.6	0	2	292	0.00	30.179 
02:40	32.8	32.8	32.8	54	18.0	0	1	292	0.00	30.179 
02:45	32.7	32.7	32.7	53	17.5	0	2	292	0.00	30.175 
02:50	32.7	32.7	32.7	54	17.9	0	3	90	0.00	30.175 
02:55	32.7	32.7	32.7	54	17.9	0	2	90	0.00	30.175 
03:00	32.7	32.7	32.7	54	17.9	1	3	45	0.00	30.167 
03:05	32.7	32.7	32.7	54	17.9	0	1	45	0.00	30.167 
03:10	32.5	32.5	32.5	55	18.2	0	1	45	0.00	30.167 
03:15	32.5	32.5	32.5	55	18.2	0	1	45	0.00	30.177 
03:20	32.5	32.5	32.5	56	18.6	0	1	45	0.00	30.177 
03:25	32.5	32.5	32.5	56	18.6	0	1	45	0.00	30.177 
03:30	32.5	32.5	32.5	57	19.0	0	1	45	0.00	30.170 
03:35	32.4	32.4	32.4	57	18.9	0	1	45	0.00	30.170 
03:40	32.4	32.4	32.4	57	18.9	0	1	45	0.00	30.170 
03:45	32.2	32.2	32.2	57	18.7	0	0	---	0.00	30.174 
03:50	32.2	32.2	32.2	57	18.7	0	1	45	0.00	30.174 
03:55	32.1	32.1	32.1	58	19.0	0	1	45	0.00	30.174 
04:00	31.9	31.9	31.9	59	19.2	1	2	45	0.00	30.160 
04:05	31.9	31.9	31.9	58	18.8	0	2	45	0.00	30.160 
04:10	31.9	31.9	31.9	59	19.2	0	1	45	0.00	30.160 
04:15	31.8	31.8	31.8	59	19.1	0	1	45	0.00	30.157 
04:20	31.8	31.8	31.8	58	18.7	1	2	45	0.00	30.157 
04:25	31.8	31.8	31.8	59	19.1	0	1	45	0.00	30.157 
04:30	31.8	31.8	31.8	59	19.1	0	0	---	0.00	30.159 
04:35	31.8	31.8	31.8	60	19.5	0	1	45	0.00	30.159 
04:40	31.6	31.6	31.6	61	19.7	0	0	---	0.00	30.159 
04:45	31.5	31.5	31.5	61	19.6	0	0	---	0.00	30.161 
04:50	31.3	31.3	31.3	62	19.8	0	0	---	0.00	30.161 
04:55	31.2	31.2	31.2	62	19.7	0	1	45	0.00	30.161 
05:00	31.2	31.2	31.2	64	20.5	0	0	---	0.00	30.171 
05:05	31.2	31.2	31.2	64	20.5	0	0	---	0.00	30.171 
05:10	31.0	31.0	31.0	64	20.3	0	0	---	0.00	30.171 
05:15	31.2	31.2	31.2	64	20.5	0	1	45	0.00	30.167 
05:20	31.2	31.2	31.2	64	20.5	0	1	45	0.00	30.167 
05:25	31.2	31.2	31.2	64	20.5	0	0	---	0.00	30.167 
05:30	31.2	31.2	31.2	64	20.5	0	0	---	0.00	30.174 
05:35	31.2	31.2	31.2	63	20.1	0	1	45	0.00	30.174 
05:40	31.2	31.2	31.2	62	19.7	0	1	45	0.00	30.174 
05:45	31.2	31.2	31.2	61	19.3	0	1	45	0.00	30.182 
05:50	31.3	31.3	31.3	60	19.0	0	1	45	0.00	30.182 
05:55	31.5	31.5	31.5	60	19.2	0	1	45	0.00	30.182 
06:00	31.6	31.6	31.6	60	19.3	1	2	45	0.00	30.180 
06:05	31.6	31.6	31.6	59	18.9	1	3	45	0.00	30.180 
06:10	31.8	31.8	31.8	59	19.1	1	2	112	0.00	30.180 
06:15	31.8	31.8	31.8	59	19.1	1	3	112	0.00	30.186 
06:20	31.8	31.8	31.8	60	19.5	1	2	90	0.00	30.186 
06:25	31.8	31.8	31.8	61	19.9	0	1	135	0.00	30.186 
06:30	31.6	31.6	31.6	61	19.7	0	2	135	0.00	30.185 
06:35	31.6	31.6	31.6	61	19.7	1	2	135	0.00	30.185 
06:40	31.5	31.5	31.5	62	20.0	1	3	135	0.00	30.185 
06:45	31.5	31.5	31.5	61	19.6	2	4	90	0.00	30.182 
06:50	31.5	31.5	31.5	61	19.6	1	3	90	0.00	30.182 
06:55	31.5	31.5	31.5	62	20.0	1	3	90	0.00	30.182 
07:00	31.5	31.5	31.5	62	20.0	1	3	90	0.00	30.181 
07:05	31.5	31.5	31.5	63	20.4	2	4	90	0.00	30.181 
07:10	31.5	31.5	31.5	63	20.4	1	3	112	0.00	30.181 
07:15	31.5	31.5	31.5	64	20.7	1	5	112	0.00	30.181 
07:20	31.3	31.3	31.3	62	19.8	3	5	90	0.00	30.181 
07:25	31.3	31.3	31.3	62	19.8	2	4	90	0.00	30.181 
07:30	31.3	31.3	31.3	63	20.2	3	5	90	0.00	30.173 
07:35	31.3	31.3	31.3	64	20.6	1	3	112	0.00	30.173 
07:40	31.5	31.5	31.5	63	20.4	2	5	90	0.00	30.173 
07:45	31.6	31.6	31.6	62	20.1	2	4	90	0.00	30.181 
07:50	31.9	31.9	31.9	62	20.4	2	5	112	0.00	30.181 
07:55	32.4	32.4	32.4	62	20.9	2	4	90	0.00	30.181 
08:00	32.7	32.7	32.7	62	21.1	2	4	112	0.00	30.180 
08:05	32.7	28.9	32.7	62	21.1	4	6	90	0.00	30.180 
08:10	32.8	29.0	32.8	61	20.9	4	11	90	0.00	30.180 
08:15	32.9	29.1	32.9	60	20.6	4	10	112	0.00	30.162 
08:20	33.2	33.2	33.2	58	20.0	3	6	112	0.00	30.162 
08:25	33.5	28.8	33.5	59	20.7	5	10	112	0.00	30.162 
08:30	34.0	30.4	34.0	58	20.8	4	6	90	0.00	30.164 
08:35	34.1	30.5	34.1	58	20.9	4	7	90	0.00	30.164 
08:40	34.1	34.1	34.1	58	20.9	3	6	112	0.00	30.164 
08:45	34.0	34.0	34.0	58	20.8	3	6	90	0.00	30.157 
08:50	33.8	33.8	33.8	59	21.0	3	6	112	0.00	30.157 
08:55	34.0	30.4	34.0	57	20.4	4	9	112	0.00	30.157 
09:00	34.1	29.5	34.1	59	21.3	5	9	112	0.00	30.151 
09:05	34.3	29.8	34.3	58	21.1	5	9	90	0.00	30.151 
09:10	34.1	30.5	34.1	58	20.9	4	9	112	0.00	30.151 
09:15	34.1	34.1	34.1	59	21.3	3	6	112	0.00	30.158 
09:20	34.4	34.4	34.4	57	20.8	3	7	112	0.00	30.158 
09:25	34.6	34.6	34.6	56	20.5	3	7	112	0.00	30.158 
09:30	34.7	31.2	34.7	55	20.2	4	7	112	0.00	30.153 
09:35	34.9	31.4	34.9	55	20.4	4	7	112	0.00	30.153 
09:40	34.9	30.5	34.9	55	20.4	5	8	90	0.00	30.153 
09:45	34.9	31.4	34.9	56	20.8	4	10	90	0.00	30.162 
09:50	35.0	31.5	35.0	55	20.5	4	7	90	0.00	30.162 
09:55	35.6	32.2	35.6	56	21.5	4	7	112	0.00	30.162 
10:00	36.0	36.0	36.0	55	21.4	3	6	112	0.00	30.149 
10:05	36.2	32.9	36.2	56	22.0	4	10	112	0.00	30.149 
10:10	36.2	32.0	36.2	54	21.2	5	12	90	0.00	30.149 
10:15	36.5	33.3	36.5	54	21.5	4	9	90	0.00	30.135 
10:20	36.9	33.7	36.9	51	20.5	4	7	112	0.00	30.135 
10:25	37.0	33.9	37.0	53	21.5	4	9	112	0.00	30.135 
10:30	37.0	37.0	37.0	53	21.5	3	7	90	0.00	30.136 
10:35	37.0	33.9	37.0	52	21.0	4	12	112	0.00	30.136 
10:40	37.0	33.9	37.0	53	21.5	4	6	112	0.00	30.136 
10:45	37.0	37.0	37.0	53	21.5	3	6	112	0.00	30.133 
10:50	37.2	34.1	37.2	53	21.7	4	9	90	0.00	30.133 
10:55	37.3	34.2	37.3	51	20.9	4	9	112	0.00	30.133 
11:00	37.2	33.2	37.2	51	20.8	5	9	90	0.00	30.127 
11:05	37.3	34.2	37.3	52	21.3	4	6	112	0.00	30.127 
11:10	37.5	33.5	37.5	50	20.6	5	10	112	0.00	30.127 
11:15	37.5	33.5	37.5	51	21.0	5	10	90	0.00	30.127 
11:20	37.3	32.5	37.3	51	20.9	6	10	112	0.00	30.127 
11:25	37.5	34.4	37.5	52	21.5	4	7	112	0.00	30.127 
11:30	37.5	34.4	37.5	50	20.6	4	8	112	0.00	30.123 
11:35	37.6	37.6	37.6	51	21.1	3	6	112	0.00	30.123 
11:40	37.9	34.9	37.9	51	21.4	4	7	90	0.00	30.123 
11:45	37.9	34.0	37.9	50	20.9	5	11	112	0.00	30.123 
11:50	37.9	34.0	37.9	48	20.0	5	11	112	0.00	30.123 
11:55	37.9	34.0	37.9	50	20.9	5	11	90	0.00	30.123 
12:00	38.2	34.4	38.2	49	20.7	5	12	112	0.00	30.119 
12:05	38.2	33.6	38.2	50	21.2	6	12	112	0.00	30.119 
12:10	38.2	33.0	38.2	50	21.2	7	12	112	0.00	30.119 
12:15	38.3	34.5	38.3	48	20.4	5	12	112	0.00	30.110 
12:20	38.5	34.7	38.5	49	21.0	5	10	112	0.00	30.110 
12:25	38.5	34.0	38.5	49	21.0	6	13	112	0.00	30.110 
12:30	38.3	33.7	38.3	49	20.8	6	14	112	0.00	30.101 
12:35	38.2	33.6	38.2	50	21.2	6	10	112	0.00	30.101 
12:40	38.2	34.4	38.2	50	21.2	5	11	112	0.00	30.101 
12:45	38.3	34.5	38.3	49	20.8	5	11	112	0.00	30.098 
12:50	38.6	35.7	38.6	50	21.6	4	9	90	0.00	30.098 
12:55	38.6	33.5	38.6	47	20.1	7	12	112	0.00	30.098 
13:00	38.6	34.1	38.6	50	21.6	6	13	112	0.00	30.097 
13:05	38.9	35.2	38.9	49	21.4	5	12	90	0.00	30.097 
13:10	38.9	35.2	38.9	49	21.4	5	15	112	0.00	30.097 
13:15	38.6	35.7	38.6	51	22.1	4	15	112	0.00	30.087 
13:20	38.8	35.1	38.8	49	21.3	5	9	112	0.00	30.087 
13:25	38.9	35.2	38.9	50	21.9	5	12	112	0.00	30.087 
13:30	39.1	35.4	39.1	50	22.0	5	9	90	0.00	30.081 
13:35	38.9	33.8	38.9	50	21.9	7	14	112	0.00	30.081 
13:40	38.8	34.3	38.8	49	21.3	6	12	112	0.00	30.081 
13:45	38.9	36.0	38.9	50	21.9	4	10	90	0.00	30.070 
13:50	38.9	35.2	38.9	50	21.9	5	10	90	0.00	30.070 
13:55	39.1	35.4	39.1	50	22.0	5	11	112	0.00	30.070 
14:00	39.3	34.9	39.3	49	21.8	6	11	112	0.00	30.055 
14:05	39.2	34.2	39.2	50	22.1	7	10	112	0.00	30.055 
14:10	39.5	35.9	39.5	51	22.9	5	11	112	0.00	30.055 
14:15	39.6	36.0	39.6	54	24.3	5	11	112	0.00	30.037 
14:20	39.8	34.9	39.8	51	23.2	7	16	112	0.00	30.037 
14:25	39.5	33.5	39.5	52	23.3	9	16	112	0.00	30.037 
14:30	39.5	34.0	39.5	53	23.8	8	14	112	0.00	30.022 
14:35	39.6	34.7	39.6	52	23.4	7	14	112	0.00	30.022 
14:40	39.6	34.1	39.6	50	22.5	8	16	112	0.00	30.022 
14:45	39.5	34.0	39.5	50	22.4	8	13	112	0.00	30.015 
14:50	39.6	34.7	39.6	50	22.5	7	13	112	0.00	30.015 
14:55	39.6	35.3	39.6	51	23.0	6	14	112	0.00	30.015 
15:00	39.8	35.5	39.8	53	24.1	6	13	112	0.00	30.016 
15:05	39.8	34.9	39.8	51	23.2	7	18	112	0.00	30.016 
15:10	39.8	36.2	39.8	52	23.6	5	13	112	0.00	30.016 
15:15	40.1	35.9	40.1	53	24.4	6	13	112	0.00	30.008 
15:20	40.6	35.9	40.6	52	24.4	7	13	112	0.00	30.008 
15:25	40.9	36.2	40.9	51	24.2	7	15	112	0.00	30.008 
15:30	40.6	35.3	40.6	50	23.4	8	14	112	0.00	30.005 
15:35	40.1	34.7	40.1	51	23.4	8	16	112	0.00	30.005 
15:40	39.8	34.3	39.8	50	22.7	8	15	112	0.00	30.005 
15:45	39.6	34.7	39.6	50	22.5	7	15	112	0.00	30.005 
15:50	39.5	35.2	39.5	53	23.8	6	15	112	0.00	30.005 
15:55	39.5	33.5	39.5	52	23.3	9	18	112	0.00	30.005 
16:00	39.3	34.3	39.3	53	23.6	7	15	112	0.00	30.004 
16:05	38.9	35.2	38.9	57	25.0	5	14	112	0.00	30.004 
16:10	38.3	33.7	38.3	58	24.8	6	15	112	0.00	30.004 
16:15	38.2	33.6	38.2	60	25.6	6	12	90	0.00	30.001 
16:20	38.2	31.9	38.2	60	25.6	9	16	112	0.00	30.001 
16:25	38.0	33.4	38.0	62	26.2	6	15	112	0.00	30.001 
16:30	37.8	34.8	37.8	64	26.7	4	12	112	0.00	29.993 
16:35	37.6	33.7	37.6	65	26.9	5	12	112	0.00	29.993 
16:40	37.3	31.3	37.3	64	26.3	8	17	112	0.00	29.993 
16:45	37.2	32.4	37.2	65	26.5	6	14	112	0.00	30.005 
16:50	37.0	32.2	37.0	67	27.1	6	13	112	0.00	30.005 
16:55	36.8	31.9	36.8	69	27.6	6	15	112	0.00	30.005 
17:00	36.8	31.9	36.8	69	27.6	6	14	112	0.00	30.016 
17:05	36.6	32.5	36.6	70	27.8	5	11	112	0.00	30.016 
17:10	36.5	31.6	36.5	70	27.7	6	14	112	0.00	30.016 
17:15	36.3	30.7	36.3	71	27.8	7	15	112	0.00	30.024 
17:20	36.3	31.4	36.3	71	27.8	6	11	112	0.00	30.024 
17:25	36.3	32.1	36.3	71	27.8	5	10	90	0.00	30.024 
17:30	36.3	33.0	36.3	72	28.2	4	9	112	0.00	30.038 
17:35	36.3	33.0	36.3	71	27.8	4	10	112	0.00	30.038 
17:40	36.3	33.0	36.3	72	28.2	4	11	90	0.00	30.038 
17:45	36.5	33.3	36.5	72	28.3	4	9	112	0.00	30.041 
17:50	36.5	33.3	36.5	71	28.0	4	7	112	0.00	30.041 
17:55	36.3	33.0	36.3	71	27.8	4	12	90	0.00	30.041 
18:00	36.3	32.1	36.3	71	27.8	5	10	112	0.00	30.040 
18:05	36.2	32.9	36.2	71	27.7	4	7	112	0.00	30.040 
18:10	36.2	36.2	36.2	71	27.7	3	7	68	0.00	30.040 
18:15	36.2	36.2	36.2	71	27.7	3	6	112	0.00	30.042 
18:20	36.2	32.9	36.2	72	28.1	4	10	112	0.00	30.042 
18:25	36.0	31.8	36.0	71	27.5	5	12	112	0.00	30.042 
18:30	36.0	31.0	36.0	71	27.5	6	12	112	0.00	30.043 
18:35	35.9	32.6	35.9	74	28.4	4	10	112	0.00	30.043 
18:40	35.5	31.2	35.5	77	29.0	5	14	90	0.00	30.043 
18:45	34.7	30.2	34.7	81	29.5	5	10	112	0.00	30.043 
18:50	34.1	30.5	34.1	84	29.8	4	11	112	0.00	30.043 
18:55	33.5	28.8	33.5	87	30.1	5	9	112	0.00	30.043 
19:00	33.2	29.5	33.2	89	30.3	4	10	112	0.00	30.043 
19:05	32.9	29.1	32.9	90	30.3	4	10	112	0.00	30.043 
19:10	32.8	28.0	32.8	91	30.5	5	12	112	0.00	30.043 
19:15	32.8	32.8	32.8	92	30.7	2	10	90	0.00	30.038 
19:20	32.7	27.9	32.7	92	30.6	5	11	112	0.00	30.038 
19:25	32.7	32.7	32.7	92	30.6	3	7	112	0.00	30.038 
19:30	32.5	32.5	32.5	92	30.4	3	6	112	0.00	30.043 
19:35	32.5	32.5	32.5	92	30.4	3	6	112	0.00	30.043 
19:40	32.5	32.5	32.5	93	30.7	3	6	112	0.00	30.043 
19:45	32.5	32.5	32.5	93	30.7	2	6	90	0.00	30.038 
19:50	32.4	32.4	32.4	93	30.6	3	7	112	0.00	30.038 
19:55	32.4	32.4	32.4	93	30.6	3	6	112	0.00	30.038 
20:00	32.2	32.2	32.2	93	30.4	3	7	112	0.00	30.045 
20:05	32.2	32.2	32.2	93	30.4	3	6	112	0.00	30.045 
20:10	32.2	32.2	32.2	93	30.4	3	7	112	0.00	30.045 
20:15	32.2	28.3	32.2	93	30.4	4	9	112	0.00	30.041 
20:20	32.2	32.2	32.2	93	30.4	3	7	112	0.00	30.041 
20:25	32.2	32.2	32.2	93	30.4	3	7	112	0.00	30.041 
20:30	32.2	32.2	32.2	93	30.4	3	7	112	0.00	30.042 
20:35	32.2	32.2	32.2	93	30.4	3	10	90	0.00	30.042 
20:40	32.1	32.1	32.1	93	30.3	2	6	90	0.00	30.042 
20:45	32.1	32.1	32.1	93	30.3	3	7	90	0.00	30.041 
20:50	31.9	28.0	31.9	93	30.1	4	11	112	0.00	30.041 
20:55	31.8	31.8	31.8	93	30.0	3	11	112	0.00	30.041 
21:00	31.8	26.8	31.8	93	30.0	5	11	112	0.00	30.040 
21:05	31.6	27.6	31.6	93	29.8	4	10	112	0.00	30.040 
21:10	31.6	27.6	31.6	93	29.8	4	10	112	0.00	30.040 
21:15	31.6	27.6	31.6	93	29.8	4	9	112	0.00	30.039 
21:20	31.5	31.5	31.5	93	29.7	2	5	112	0.00	30.039 
21:25	31.5	31.5	31.5	93	29.7	2	7	22	0.00	30.039 
21:30	31.5	31.5	31.5	93	29.7	3	6	112	0.00	30.039 
21:35	31.5	31.5	31.5	93	29.7	3	7	90	0.00	30.039 
21:40	31.2	31.2	31.2	93	29.4	3	11	22	0.00	30.039 
21:45	31.0	31.0	31.0	93	29.2	3	9	90	0.00	30.043 
21:50	31.0	31.0	31.0	92	29.0	3	12	112	0.00	30.043 
21:55	30.9	26.8	30.9	92	28.9	4	9	112	0.00	30.043 
22:00	30.9	30.9	30.9	92	28.9	3	9	112	0.00	30.057 
22:05	30.9	26.8	30.9	92	28.9	4	17	45	0.00	30.057 
22:10	30.9	26.8	30.9	92	28.9	4	10	112	0.00	30.057 
22:15	30.9	26.8	30.9	92	28.9	4	11	112	0.00	30.058 
22:20	30.9	26.8	30.9	92	28.9	4	10	112	0.00	30.058 
22:25	30.9	25.8	30.9	92	28.9	5	11	112	0.00	30.058 
22:30	30.9	30.9	30.9	92	28.9	3	6	112	0.00	30.064 
22:35	31.0	31.0	31.0	92	29.0	2	7	112	0.00	30.064 
22:40	31.0	31.0	31.0	92	29.0	2	6	45	0.00	30.064 
22:45	31.0	31.0	31.0	92	29.0	3	10	112	0.00	30.072 
22:50	30.9	30.9	30.9	92	28.9	3	7	112	0.00	30.072 
22:55	30.9	25.8	30.9	92	28.9	5	10	112	0.00	30.072 
23:00	30.7	30.7	30.7	92	28.7	3	9	112	0.00	30.071 
23:05	30.7	26.6	30.7	92	28.7	4	7	112	0.00	30.071 
23:10	30.7	30.7	30.7	92	28.7	3	9	112	0.00	30.071 
23:15	30.7	30.7	30.7	92	28.7	2	9	112	0.00	30.072 
23:20	30.7	30.7	30.7	92	28.7	2	11	112	0.00	30.072 
23:25	30.7	30.7	30.7	92	28.7	2	4	90	0.00	30.072 
23:30	30.7	30.7	30.7	92	28.7	2	7	45	0.00	30.075 
23:35	30.7	30.7	30.7	92	28.7	3	7	112	0.00	30.075 
23:40	30.7	30.7	30.7	91	28.4	3	7	112	0.00	30.075 
23:45	30.7	30.7	30.7	91	28.4	2	5	45	0.00	30.078 
23:50	30.7	26.6	30.7	91	28.4	4	11	112	0.00	30.078 
23:55	30.7	30.7	30.7	91	28.4	2	6	112	0.00	30.078 

CoCoRaHS
IN-AL-39
A2 Web Hosting
Creative Commons License
GoDaddy
Look for:

loaded 2017-12-12 01:50:06 • last modified 2010-11-18 10:43:29
Privacy PolicyDisclaimer
• wx.awcolley.com is powered by PmWiki v.2002016 •
• all content (unless otherwise noted) © 2017 A W Colley